LICA/SUF METAR and TAF weather

Enter ICAO airport designator
Station Type Date Time Source
LICA METAR 2019/02/22 22:50 UTC NOAA

LICA 222250Z 27009KT 9999 SCT020 SCT070 11/07 Q1018


Station Type Date Time Source
LICA Decoded METAR 2019/02/22 22:50 UTC NOAA

Lamezia Terme, Italy (LICA) 38-54N 016-15E
Feb 22, 2019 - 05:50 PM EST / 2019.02.22 2250 UTC
Wind: from the W (270 degrees) at 10 MPH (9 KT):0
Visibility: greater than 7 mile(s):0
Sky conditions: partly cloudy
Temperature: 51 F (11 C)
Dew Point: 44 F (7 C)
Relative Humidity: 76%
Pressure (altimeter): 30.06 in. Hg (1018 hPa)
ob: LICA 222250Z 27009KT 9999 SCT020 SCT070 11/07 Q1018
cycle: 23

Station Type Date Time Source
LICA TAF 2019/02/22 18:21 UTC NOAA

TAF LICA 221700Z 2218/2318 27012KT 9999 SCT030
BECMG 2303/2306 04018G30KT
TEMPO 2306/2318 4000 SHGS


Example: see airport list